sensor_id;sensor_type;location;lat;lon;timestamp;temperature;humidity
39847;DHT22;25517;52.422;10.782;2023-01-28T00:01:20;2.10;99.90
39847;DHT22;25517;52.422;10.782;2023-01-28T00:03:49;2.10;99.90
39847;DHT22;25517;52.422;10.782;2023-01-28T00:06:15;2.00;99.90
39847;DHT22;25517;52.422;10.782;2023-01-28T00:08:41;2.00;99.90
39847;DHT22;25517;52.422;10.782;2023-01-28T00:11:08;2.00;99.90
39847;DHT22;25517;52.422;10.782;2023-01-28T00:13:34;2.00;99.90
39847;DHT22;25517;52.422;10.782;2023-01-28T00:16:02;2.00;99.90
39847;DHT22;25517;52.422;10.782;2023-01-28T00:18:29;2.00;99.90
39847;DHT22;25517;52.422;10.782;2023-01-28T00:21:06;1.90;99.90
39847;DHT22;25517;52.422;10.782;2023-01-28T00:23:34;2.00;99.90
39847;DHT22;25517;52.422;10.782;2023-01-28T00:26:02;1.90;99.90
39847;DHT22;25517;52.422;10.782;2023-01-28T00:28:28;1.90;99.90
39847;DHT22;25517;52.422;10.782;2023-01-28T00:30:53;1.90;99.90
39847;DHT22;25517;52.422;10.782;2023-01-28T00:33:19;1.90;99.90
39847;DHT22;25517;52.422;10.782;2023-01-28T00:35:45;1.90;99.90
39847;DHT22;25517;52.422;10.782;2023-01-28T00:38:11;1.80;99.90
39847;DHT22;25517;52.422;10.782;2023-01-28T00:40:37;1.80;99.90
39847;DHT22;25517;52.422;10.782;2023-01-28T00:43:02;1.80;99.90
39847;DHT22;25517;52.422;10.782;2023-01-28T00:45:28;1.80;99.90
39847;DHT22;25517;52.422;10.782;2023-01-28T00:47:54;1.90;99.90
39847;DHT22;25517;52.422;10.782;2023-01-28T00:50:19;1.90;99.90
39847;DHT22;25517;52.422;10.782;2023-01-28T00:52:47;1.80;99.90
39847;DHT22;25517;52.422;10.782;2023-01-28T00:55:13;1.80;99.90
39847;DHT22;25517;52.422;10.782;2023-01-28T00:57:39;1.80;99.90
39847;DHT22;25517;52.422;10.782;2023-01-28T01:00:05;1.80;99.90
39847;DHT22;25517;52.422;10.782;2023-01-28T01:02:31;1.70;99.90
39847;DHT22;25517;52.422;10.782;2023-01-28T01:04:57;1.70;99.90
39847;DHT22;25517;52.422;10.782;2023-01-28T01:07:24;1.70;99.90
39847;DHT22;25517;52.422;10.782;2023-01-28T01:09:58;1.70;99.90
39847;DHT22;25517;52.422;10.782;2023-01-28T01:12:23;1.70;99.90
39847;DHT22;25517;52.422;10.782;2023-01-28T01:14:49;1.60;99.90
39847;DHT22;25517;52.422;10.782;2023-01-28T01:17:15;1.60;99.90
39847;DHT22;25517;52.422;10.782;2023-01-28T01:19:40;1.60;99.90
39847;DHT22;25517;52.422;10.782;2023-01-28T01:22:06;1.60;99.90
39847;DHT22;25517;52.422;10.782;2023-01-28T01:24:31;1.50;99.90
39847;DHT22;25517;52.422;10.782;2023-01-28T01:26:58;1.50;99.90
39847;DHT22;25517;52.422;10.782;2023-01-28T01:29:24;1.50;99.90
39847;DHT22;25517;52.422;10.782;2023-01-28T01:31:49;1.50;99.90
39847;DHT22;25517;52.422;10.782;2023-01-28T01:34:15;1.60;99.90
39847;DHT22;25517;52.422;10.782;2023-01-28T01:36:40;1.50;99.90
39847;DHT22;25517;52.422;10.782;2023-01-28T01:39:13;1.50;99.90
39847;DHT22;25517;52.422;10.782;2023-01-28T01:41:38;1.50;99.90
39847;DHT22;25517;52.422;10.782;2023-01-28T01:44:05;1.50;99.90
39847;DHT22;25517;52.422;10.782;2023-01-28T01:46:37;1.60;99.90
39847;DHT22;25517;52.422;10.782;2023-01-28T01:49:22;1.50;99.90
39847;DHT22;25517;52.422;10.782;2023-01-28T01:52:12;1.50;99.90
39847;DHT22;25517;52.422;10.782;2023-01-28T01:54:43;1.50;99.90
39847;DHT22;25517;52.422;10.782;2023-01-28T01:57:13;1.50;99.90
39847;DHT22;25517;52.422;10.782;2023-01-28T01:59:39;1.50;99.90
39847;DHT22;25517;52.422;10.782;2023-01-28T02:02:07;1.60;99.90
39847;DHT22;25517;52.422;10.782;2023-01-28T02:04:41;1.60;99.90
39847;DHT22;25517;52.422;10.782;2023-01-28T02:07:09;1.60;99.90
39847;DHT22;25517;52.422;10.782;2023-01-28T02:09:35;1.60;99.90
39847;DHT22;25517;52.422;10.782;2023-01-28T02:12:13;1.60;99.90
39847;DHT22;25517;52.422;10.782;2023-01-28T02:14:50;1.60;99.90
39847;DHT22;25517;52.422;10.782;2023-01-28T02:17:17;1.60;99.90
39847;DHT22;25517;52.422;10.782;2023-01-28T02:19:49;1.60;99.90
39847;DHT22;25517;52.422;10.782;2023-01-28T02:22:33;1.70;99.90
39847;DHT22;25517;52.422;10.782;2023-01-28T02:25:13;1.70;99.90
39847;DHT22;25517;52.422;10.782;2023-01-28T02:30:41;1.70;99.90
39847;DHT22;25517;52.422;10.782;2023-01-28T02:33:17;1.70;99.90
39847;DHT22;25517;52.422;10.782;2023-01-28T02:35:51;1.70;99.90
39847;DHT22;25517;52.422;10.782;2023-01-28T02:38:47;1.70;99.90
39847;DHT22;25517;52.422;10.782;2023-01-28T02:41:22;1.80;99.90
39847;DHT22;25517;52.422;10.782;2023-01-28T02:43:49;1.70;99.90
39847;DHT22;25517;52.422;10.782;2023-01-28T02:49:17;1.80;99.90
39847;DHT22;25517;52.422;10.782;2023-01-28T02:52:11;1.80;99.90
39847;DHT22;25517;52.422;10.782;2023-01-28T03:00:24;1.80;99.90
39847;DHT22;25517;52.422;10.782;2023-01-28T03:03:02;1.80;99.90
39847;DHT22;25517;52.422;10.782;2023-01-28T03:05:35;1.80;99.90
39847;DHT22;25517;52.422;10.782;2023-01-28T03:08:03;1.80;99.90
39847;DHT22;25517;52.422;10.782;2023-01-28T03:10:51;1.90;99.90
39847;DHT22;25517;52.422;10.782;2023-01-28T03:13:36;1.90;99.90
39847;DHT22;25517;52.422;10.782;2023-01-28T03:16:21;1.90;99.90
39847;DHT22;25517;52.422;10.782;2023-01-28T03:19:05;1.90;99.90
39847;DHT22;25517;52.422;10.782;2023-01-28T03:21:51;1.90;99.90
39847;DHT22;25517;52.422;10.782;2023-01-28T03:28:04;1.80;99.90
39847;DHT22;25517;52.422;10.782;2023-01-28T03:30:59;1.80;99.90
39847;DHT22;25517;52.422;10.782;2023-01-28T03:33:47;1.90;99.90
39847;DHT22;25517;52.422;10.782;2023-01-28T03:36:31;1.90;99.90
39847;DHT22;25517;52.422;10.782;2023-01-28T03:39:17;1.80;99.90
39847;DHT22;25517;52.422;10.782;2023-01-28T03:41:54;1.90;99.90
39847;DHT22;25517;52.422;10.782;2023-01-28T03:44:20;1.80;99.90
39847;DHT22;25517;52.422;10.782;2023-01-28T03:47:04;1.80;99.90
39847;DHT22;25517;52.422;10.782;2023-01-28T03:49:31;1.80;99.90
39847;DHT22;25517;52.422;10.782;2023-01-28T03:51:57;1.80;99.90
39847;DHT22;25517;52.422;10.782;2023-01-28T03:54:22;1.80;99.90
39847;DHT22;25517;52.422;10.782;2023-01-28T03:56:48;1.80;99.90
39847;DHT22;25517;52.422;10.782;2023-01-28T03:59:13;1.80;99.90
39847;DHT22;25517;52.422;10.782;2023-01-28T04:01:39;1.80;99.90
39847;DHT22;25517;52.422;10.782;2023-01-28T04:04:04;1.80;99.90
39847;DHT22;25517;52.422;10.782;2023-01-28T04:06:30;1.90;99.90
39847;DHT22;25517;52.422;10.782;2023-01-28T04:08:56;1.80;99.90
39847;DHT22;25517;52.422;10.782;2023-01-28T04:11:24;1.80;99.90
39847;DHT22;25517;52.422;10.782;2023-01-28T04:13:51;1.80;99.90
39847;DHT22;25517;52.422;10.782;2023-01-28T04:16:18;1.80;99.90
39847;DHT22;25517;52.422;10.782;2023-01-28T04:18:45;1.80;99.90
39847;DHT22;25517;52.422;10.782;2023-01-28T04:21:10;1.80;99.90
39847;DHT22;25517;52.422;10.782;2023-01-28T04:23:37;1.80;99.90
39847;DHT22;25517;52.422;10.782;2023-01-28T04:26:03;1.80;99.90
39847;DHT22;25517;52.422;10.782;2023-01-28T04:28:29;1.80;99.90
39847;DHT22;25517;52.422;10.782;2023-01-28T04:30:55;1.80;99.90
39847;DHT22;25517;52.422;10.782;2023-01-28T04:33:22;1.70;99.90
39847;DHT22;25517;52.422;10.782;2023-01-28T04:35:47;1.70;99.90
39847;DHT22;25517;52.422;10.782;2023-01-28T04:38:13;1.70;99.90
39847;DHT22;25517;52.422;10.782;2023-01-28T04:40:38;1.80;99.90
39847;DHT22;25517;52.422;10.782;2023-01-28T04:43:04;1.80;99.90
39847;DHT22;25517;52.422;10.782;2023-01-28T04:45:29;1.70;99.90
39847;DHT22;25517;52.422;10.782;2023-01-28T04:47:55;1.80;99.90
39847;DHT22;25517;52.422;10.782;2023-01-28T04:50:21;1.80;99.90
39847;DHT22;25517;52.422;10.782;2023-01-28T04:52:46;1.80;99.90
39847;DHT22;25517;52.422;10.782;2023-01-28T04:55:12;1.80;99.90
39847;DHT22;25517;52.422;10.782;2023-01-28T04:57:37;1.80;99.90
39847;DHT22;25517;52.422;10.782;2023-01-28T05:00:04;1.80;99.90
39847;DHT22;25517;52.422;10.782;2023-01-28T05:02:30;1.80;99.90
39847;DHT22;25517;52.422;10.782;2023-01-28T05:04:55;1.70;99.90
39847;DHT22;25517;52.422;10.782;2023-01-28T05:07:21;1.70;99.90
39847;DHT22;25517;52.422;10.782;2023-01-28T05:09:46;1.70;99.90
39847;DHT22;25517;52.422;10.782;2023-01-28T05:12:12;1.70;99.90
39847;DHT22;25517;52.422;10.782;2023-01-28T05:14:37;1.70;99.90
39847;DHT22;25517;52.422;10.782;2023-01-28T05:17:03;1.70;99.90
39847;DHT22;25517;52.422;10.782;2023-01-28T05:19:28;1.70;99.90
39847;DHT22;25517;52.422;10.782;2023-01-28T05:21:54;1.70;99.90
39847;DHT22;25517;52.422;10.782;2023-01-28T05:24:19;1.70;99.90
39847;DHT22;25517;52.422;10.782;2023-01-28T05:26:45;1.70;99.90
39847;DHT22;25517;52.422;10.782;2023-01-28T05:29:11;1.60;99.90
39847;DHT22;25517;52.422;10.782;2023-01-28T05:31:36;1.70;99.90
39847;DHT22;25517;52.422;10.782;2023-01-28T05:34:02;1.70;99.90
39847;DHT22;25517;52.422;10.782;2023-01-28T05:36:27;1.70;99.90
39847;DHT22;25517;52.422;10.782;2023-01-28T05:38:53;1.60;99.90
39847;DHT22;25517;52.422;10.782;2023-01-28T05:41:18;1.60;99.90
39847;DHT22;25517;52.422;10.782;2023-01-28T05:43:44;1.60;99.90
39847;DHT22;25517;52.422;10.782;2023-01-28T05:46:09;1.60;99.90
39847;DHT22;25517;52.422;10.782;2023-01-28T05:48:35;1.60;99.90
39847;DHT22;25517;52.422;10.782;2023-01-28T05:51:00;1.60;99.90
39847;DHT22;25517;52.422;10.782;2023-01-28T05:53:26;1.70;99.90
39847;DHT22;25517;52.422;10.782;2023-01-28T05:55:52;1.70;99.90
39847;DHT22;25517;52.422;10.782;2023-01-28T05:58:19;1.70;99.90
39847;DHT22;25517;52.422;10.782;2023-01-28T06:00:45;1.60;99.90
39847;DHT22;25517;52.422;10.782;2023-01-28T06:03:11;1.60;99.90
39847;DHT22;25517;52.422;10.782;2023-01-28T06:05:37;1.60;99.90
39847;DHT22;25517;52.422;10.782;2023-01-28T06:08:02;1.60;99.90
39847;DHT22;25517;52.422;10.782;2023-01-28T06:10:28;1.60;99.90
39847;DHT22;25517;52.422;10.782;2023-01-28T06:12:54;1.60;99.90
39847;DHT22;25517;52.422;10.782;2023-01-28T06:15:20;1.60;99.90
39847;DHT22;25517;52.422;10.782;2023-01-28T06:17:46;1.50;99.90
39847;DHT22;25517;52.422;10.782;2023-01-28T06:20:12;1.60;99.90
39847;DHT22;25517;52.422;10.782;2023-01-28T06:22:38;1.60;99.90
39847;DHT22;25517;52.422;10.782;2023-01-28T06:25:03;1.60;99.90
39847;DHT22;25517;52.422;10.782;2023-01-28T06:27:29;1.60;99.90
39847;DHT22;25517;52.422;10.782;2023-01-28T06:29:55;1.60;99.90
39847;DHT22;25517;52.422;10.782;2023-01-28T06:32:20;1.60;99.90
39847;DHT22;25517;52.422;10.782;2023-01-28T06:34:46;1.60;99.90
39847;DHT22;25517;52.422;10.782;2023-01-28T06:37:12;1.60;99.90
39847;DHT22;25517;52.422;10.782;2023-01-28T06:39:38;1.60;99.90
39847;DHT22;25517;52.422;10.782;2023-01-28T06:42:04;1.60;99.90
39847;DHT22;25517;52.422;10.782;2023-01-28T06:44:29;1.60;99.90
39847;DHT22;25517;52.422;10.782;2023-01-28T06:46:55;1.50;99.90
39847;DHT22;25517;52.422;10.782;2023-01-28T06:49:20;1.50;99.90
39847;DHT22;25517;52.422;10.782;2023-01-28T06:51:46;1.50;99.90
39847;DHT22;25517;52.422;10.782;2023-01-28T06:54:13;1.50;99.90
39847;DHT22;25517;52.422;10.782;2023-01-28T06:56:39;1.60;99.90
39847;DHT22;25517;52.422;10.782;2023-01-28T06:59:05;1.60;99.90
39847;DHT22;25517;52.422;10.782;2023-01-28T07:01:30;1.60;99.90
39847;DHT22;25517;52.422;10.782;2023-01-28T07:03:56;1.60;99.90
39847;DHT22;25517;52.422;10.782;2023-01-28T07:06:22;1.60;99.90
39847;DHT22;25517;52.422;10.782;2023-01-28T07:08:48;1.60;99.90
39847;DHT22;25517;52.422;10.782;2023-01-28T07:11:14;1.60;99.90
39847;DHT22;25517;52.422;10.782;2023-01-28T07:13:40;1.60;99.90
39847;DHT22;25517;52.422;10.782;2023-01-28T07:16:06;1.60;99.90
39847;DHT22;25517;52.422;10.782;2023-01-28T07:18:32;1.60;99.90
39847;DHT22;25517;52.422;10.782;2023-01-28T07:20:57;1.60;99.90
39847;DHT22;25517;52.422;10.782;2023-01-28T07:23:23;1.60;99.90
39847;DHT22;25517;52.422;10.782;2023-01-28T07:25:49;1.50;99.90
39847;DHT22;25517;52.422;10.782;2023-01-28T07:28:14;1.60;99.90
39847;DHT22;25517;52.422;10.782;2023-01-28T07:30:47;1.60;99.90
39847;DHT22;25517;52.422;10.782;2023-01-28T07:33:12;1.60;99.90
39847;DHT22;25517;52.422;10.782;2023-01-28T07:35:38;1.60;99.90
39847;DHT22;25517;52.422;10.782;2023-01-28T07:38:03;1.60;99.90
39847;DHT22;25517;52.422;10.782;2023-01-28T07:40:29;1.60;99.90
39847;DHT22;25517;52.422;10.782;2023-01-28T07:42:55;1.60;99.90
39847;DHT22;25517;52.422;10.782;2023-01-28T07:45:22;1.60;99.90
39847;DHT22;25517;52.422;10.782;2023-01-28T07:48:02;1.60;99.90
39847;DHT22;25517;52.422;10.782;2023-01-28T07:50:29;1.60;99.90
39847;DHT22;25517;52.422;10.782;2023-01-28T07:52:56;1.60;99.90
39847;DHT22;25517;52.422;10.782;2023-01-28T07:55:22;1.60;99.90
39847;DHT22;25517;52.422;10.782;2023-01-28T07:57:55;1.60;99.90
39847;DHT22;25517;52.422;10.782;2023-01-28T08:00:21;1.70;99.90
39847;DHT22;25517;52.422;10.782;2023-01-28T08:02:48;1.70;99.90
39847;DHT22;25517;52.422;10.782;2023-01-28T08:05:16;1.70;99.90
39847;DHT22;25517;52.422;10.782;2023-01-28T08:07:41;1.70;99.90
39847;DHT22;25517;52.422;10.782;2023-01-28T08:10:08;1.70;99.90
39847;DHT22;25517;52.422;10.782;2023-01-28T08:12:34;1.80;99.90
39847;DHT22;25517;52.422;10.782;2023-01-28T08:15:00;1.80;99.90
39847;DHT22;25517;52.422;10.782;2023-01-28T08:17:26;1.80;99.90
39847;DHT22;25517;52.422;10.782;2023-01-28T08:19:52;1.80;99.90
39847;DHT22;25517;52.422;10.782;2023-01-28T08:22:18;1.80;99.90
39847;DHT22;25517;52.422;10.782;2023-01-28T08:24:43;1.80;99.90
39847;DHT22;25517;52.422;10.782;2023-01-28T08:27:09;1.80;99.90
39847;DHT22;25517;52.422;10.782;2023-01-28T08:29:34;1.80;99.90
39847;DHT22;25517;52.422;10.782;2023-01-28T08:32:00;1.80;99.90
39847;DHT22;25517;52.422;10.782;2023-01-28T08:34:25;1.80;99.90
39847;DHT22;25517;52.422;10.782;2023-01-28T08:36:51;1.80;99.90
39847;DHT22;25517;52.422;10.782;2023-01-28T08:39:16;1.80;99.90
39847;DHT22;25517;52.422;10.782;2023-01-28T08:41:42;1.80;99.90
39847;DHT22;25517;52.422;10.782;2023-01-28T08:44:07;1.80;99.90
39847;DHT22;25517;52.422;10.782;2023-01-28T08:46:33;1.80;99.90
39847;DHT22;25517;52.422;10.782;2023-01-28T08:48:58;1.80;99.90
39847;DHT22;25517;52.422;10.782;2023-01-28T08:51:24;1.90;99.90
39847;DHT22;25517;52.422;10.782;2023-01-28T08:53:49;1.90;99.90
39847;DHT22;25517;52.422;10.782;2023-01-28T08:56:15;1.90;99.90
39847;DHT22;25517;52.422;10.782;2023-01-28T08:58:40;1.90;99.90
39847;DHT22;25517;52.422;10.782;2023-01-28T09:01:06;1.90;99.90
39847;DHT22;25517;52.422;10.782;2023-01-28T09:03:32;2.00;99.90
39847;DHT22;25517;52.422;10.782;2023-01-28T09:06:01;2.10;99.90
39847;DHT22;25517;52.422;10.782;2023-01-28T09:08:27;2.10;99.90
39847;DHT22;25517;52.422;10.782;2023-01-28T09:10:56;2.20;99.90
39847;DHT22;25517;52.422;10.782;2023-01-28T09:13:23;2.20;99.90
39847;DHT22;25517;52.422;10.782;2023-01-28T09:15:49;2.20;99.90
39847;DHT22;25517;52.422;10.782;2023-01-28T09:18:16;2.10;99.90
39847;DHT22;25517;52.422;10.782;2023-01-28T09:20:41;2.20;99.90
39847;DHT22;25517;52.422;10.782;2023-01-28T09:23:07;2.30;99.90
39847;DHT22;25517;52.422;10.782;2023-01-28T09:25:33;2.30;99.90
39847;DHT22;25517;52.422;10.782;2023-01-28T09:28:00;2.30;99.90
39847;DHT22;25517;52.422;10.782;2023-01-28T09:30:26;2.30;99.90
39847;DHT22;25517;52.422;10.782;2023-01-28T09:32:53;2.30;99.90
39847;DHT22;25517;52.422;10.782;2023-01-28T09:35:19;2.30;99.90
39847;DHT22;25517;52.422;10.782;2023-01-28T09:37:45;2.30;99.90
39847;DHT22;25517;52.422;10.782;2023-01-28T09:40:20;2.40;99.90
39847;DHT22;25517;52.422;10.782;2023-01-28T09:45:39;2.50;99.90
39847;DHT22;25517;52.422;10.782;2023-01-28T09:48:07;2.60;99.90
39847;DHT22;25517;52.422;10.782;2023-01-28T09:50:40;2.60;99.90
39847;DHT22;25517;52.422;10.782;2023-01-28T09:53:14;2.50;99.90
39847;DHT22;25517;52.422;10.782;2023-01-28T09:55:50;2.40;99.90
39847;DHT22;25517;52.422;10.782;2023-01-28T09:58:18;2.40;99.90
39847;DHT22;25517;52.422;10.782;2023-01-28T10:00:55;2.40;99.90
39847;DHT22;25517;52.422;10.782;2023-01-28T10:03:32;2.40;99.90
39847;DHT22;25517;52.422;10.782;2023-01-28T10:16:42;2.30;99.90
39847;DHT22;25517;52.422;10.782;2023-01-28T10:21:58;2.20;99.90
39847;DHT22;25517;52.422;10.782;2023-01-28T10:24:35;2.30;99.90
39847;DHT22;25517;52.422;10.782;2023-01-28T10:29:58;2.40;99.90
39847;DHT22;25517;52.422;10.782;2023-01-28T10:32:32;2.30;99.90
39847;DHT22;25517;52.422;10.782;2023-01-28T10:34:58;2.40;99.90
39847;DHT22;25517;52.422;10.782;2023-01-28T10:37:27;2.40;99.90
39847;DHT22;25517;52.422;10.782;2023-01-28T10:39:55;2.30;99.90
39847;DHT22;25517;52.422;10.782;2023-01-28T10:42:29;2.30;99.90
39847;DHT22;25517;52.422;10.782;2023-01-28T10:45:07;2.30;99.90
39847;DHT22;25517;52.422;10.782;2023-01-28T10:47:43;2.20;99.90
39847;DHT22;25517;52.422;10.782;2023-01-28T10:50:16;2.20;99.90
39847;DHT22;25517;52.422;10.782;2023-01-28T10:55:22;2.20;99.90
39847;DHT22;25517;52.422;10.782;2023-01-28T10:57:48;2.20;99.90
39847;DHT22;25517;52.422;10.782;2023-01-28T11:02:48;2.50;99.90
39847;DHT22;25517;52.422;10.782;2023-01-28T11:05:19;2.50;99.90
39847;DHT22;25517;52.422;10.782;2023-01-28T11:07:46;2.60;99.90
39847;DHT22;25517;52.422;10.782;2023-01-28T11:10:35;2.60;99.90
39847;DHT22;25517;52.422;10.782;2023-01-28T11:13:03;2.40;99.90
39847;DHT22;25517;52.422;10.782;2023-01-28T11:15:30;2.40;99.90
39847;DHT22;25517;52.422;10.782;2023-01-28T11:18:02;2.40;99.90
39847;DHT22;25517;52.422;10.782;2023-01-28T11:20:36;2.40;99.90
39847;DHT22;25517;52.422;10.782;2023-01-28T11:23:02;2.30;99.90
39847;DHT22;25517;52.422;10.782;2023-01-28T11:25:32;2.30;99.90
39847;DHT22;25517;52.422;10.782;2023-01-28T11:27:59;2.30;99.90
39847;DHT22;25517;52.422;10.782;2023-01-28T11:30:28;2.30;99.90
39847;DHT22;25517;52.422;10.782;2023-01-28T11:35:54;2.30;99.90
39847;DHT22;25517;52.422;10.782;2023-01-28T11:38:22;2.20;99.90
39847;DHT22;25517;52.422;10.782;2023-01-28T11:40:50;2.30;99.90
39847;DHT22;25517;52.422;10.782;2023-01-28T11:43:16;2.40;99.90
39847;DHT22;25517;52.422;10.782;2023-01-28T11:57:07;2.30;99.90
39847;DHT22;25517;52.422;10.782;2023-01-28T12:05:38;2.30;99.90
39847;DHT22;25517;52.422;10.782;2023-01-28T12:16:36;2.50;99.90
39847;DHT22;25517;52.422;10.782;2023-01-28T12:27:25;2.60;99.90
39847;DHT22;25517;52.422;10.782;2023-01-28T12:30:05;2.60;99.90
39847;DHT22;25517;52.422;10.782;2023-01-28T12:32:48;2.70;99.90
39847;DHT22;25517;52.422;10.782;2023-01-28T12:38:59;2.80;99.90
39847;DHT22;25517;52.422;10.782;2023-01-28T12:41:33;2.80;99.90
39847;DHT22;25517;52.422;10.782;2023-01-28T12:44:08;2.90;99.90
39847;DHT22;25517;52.422;10.782;2023-01-28T12:46:40;2.90;99.90
39847;DHT22;25517;52.422;10.782;2023-01-28T12:49:20;2.90;99.90
39847;DHT22;25517;52.422;10.782;2023-01-28T12:51:53;3.00;99.90
39847;DHT22;25517;52.422;10.782;2023-01-28T12:57:20;3.10;99.90
39847;DHT22;25517;52.422;10.782;2023-01-28T12:59:56;3.30;99.90
39847;DHT22;25517;52.422;10.782;2023-01-28T13:02:26;3.90;99.90
39847;DHT22;25517;52.422;10.782;2023-01-28T13:07:44;4.50;99.90
39847;DHT22;25517;52.422;10.782;2023-01-28T13:12:42;4.50;99.90
39847;DHT22;25517;52.422;10.782;2023-01-28T13:15:14;4.60;99.60
39847;DHT22;25517;52.422;10.782;2023-01-28T13:17:56;4.20;98.60
39847;DHT22;25517;52.422;10.782;2023-01-28T13:20:50;4.10;99.10
39847;DHT22;25517;52.422;10.782;2023-01-28T13:23:45;3.90;98.80
39847;DHT22;25517;52.422;10.782;2023-01-28T13:28:45;3.00;99.90
39847;DHT22;25517;52.422;10.782;2023-01-28T13:31:13;3.10;99.90
39847;DHT22;25517;52.422;10.782;2023-01-28T13:33:47;3.10;99.90
39847;DHT22;25517;52.422;10.782;2023-01-28T13:36:28;3.20;99.90
39847;DHT22;25517;52.422;10.782;2023-01-28T13:41:40;3.30;99.90
39847;DHT22;25517;52.422;10.782;2023-01-28T13:46:51;3.20;99.90
39847;DHT22;25517;52.422;10.782;2023-01-28T13:49:23;3.20;99.90
39847;DHT22;25517;52.422;10.782;2023-01-28T13:54:40;3.30;99.90
39847;DHT22;25517;52.422;10.782;2023-01-28T13:59:53;3.20;99.90
39847;DHT22;25517;52.422;10.782;2023-01-28T14:05:08;3.10;99.90
39847;DHT22;25517;52.422;10.782;2023-01-28T14:10:52;2.80;99.90
39847;DHT22;25517;52.422;10.782;2023-01-28T14:18:34;2.70;99.90
39847;DHT22;25517;52.422;10.782;2023-01-28T14:21:03;2.80;99.90
39847;DHT22;25517;52.422;10.782;2023-01-28T14:23:35;2.90;99.90
39847;DHT22;25517;52.422;10.782;2023-01-28T14:26:15;3.00;99.90
39847;DHT22;25517;52.422;10.782;2023-01-28T14:33:40;2.70;99.90
39847;DHT22;25517;52.422;10.782;2023-01-28T14:36:10;2.70;99.90
39847;DHT22;25517;52.422;10.782;2023-01-28T14:38:39;2.60;99.90
39847;DHT22;25517;52.422;10.782;2023-01-28T14:41:06;2.70;99.90
39847;DHT22;25517;52.422;10.782;2023-01-28T14:43:33;2.60;99.90
39847;DHT22;25517;52.422;10.782;2023-01-28T14:49:03;2.50;99.90
39847;DHT22;25517;52.422;10.782;2023-01-28T14:54:34;2.30;99.90
39847;DHT22;25517;52.422;10.782;2023-01-28T14:59:56;2.10;99.90
39847;DHT22;25517;52.422;10.782;2023-01-28T15:02:25;2.00;99.90
39847;DHT22;25517;52.422;10.782;2023-01-28T15:04:52;2.00;99.90
39847;DHT22;25517;52.422;10.782;2023-01-28T15:07:20;1.90;99.90
39847;DHT22;25517;52.422;10.782;2023-01-28T15:09:58;1.80;99.90
39847;DHT22;25517;52.422;10.782;2023-01-28T15:12:24;1.70;99.90
39847;DHT22;25517;52.422;10.782;2023-01-28T15:14:49;1.70;99.90
39847;DHT22;25517;52.422;10.782;2023-01-28T15:17:26;1.60;99.90
39847;DHT22;25517;52.422;10.782;2023-01-28T15:19:53;1.60;99.90
39847;DHT22;25517;52.422;10.782;2023-01-28T15:22:24;1.50;99.90
39847;DHT22;25517;52.422;10.782;2023-01-28T15:24:50;1.40;99.90
39847;DHT22;25517;52.422;10.782;2023-01-28T15:27:17;1.40;99.90
39847;DHT22;25517;52.422;10.782;2023-01-28T15:29:54;1.40;99.90
39847;DHT22;25517;52.422;10.782;2023-01-28T15:32:28;1.30;99.90
39847;DHT22;25517;52.422;10.782;2023-01-28T15:34:54;1.20;99.90
39847;DHT22;25517;52.422;10.782;2023-01-28T15:37:20;1.20;99.90
39847;DHT22;25517;52.422;10.782;2023-01-28T15:39:46;1.20;99.90
39847;DHT22;25517;52.422;10.782;2023-01-28T15:42:23;1.10;99.90
39847;DHT22;25517;52.422;10.782;2023-01-28T15:44:55;1.00;99.90
39847;DHT22;25517;52.422;10.782;2023-01-28T15:47:28;1.00;99.90
39847;DHT22;25517;52.422;10.782;2023-01-28T15:49:58;1.00;99.90
39847;DHT22;25517;52.422;10.782;2023-01-28T15:52:41;0.90;99.90
39847;DHT22;25517;52.422;10.782;2023-01-28T15:55:32;0.90;99.90
39847;DHT22;25517;52.422;10.782;2023-01-28T15:58:18;0.80;99.90
39847;DHT22;25517;52.422;10.782;2023-01-28T16:00:45;0.70;99.90
39847;DHT22;25517;52.422;10.782;2023-01-28T16:03:20;0.70;99.90
39847;DHT22;25517;52.422;10.782;2023-01-28T16:06:04;0.60;99.90
39847;DHT22;25517;52.422;10.782;2023-01-28T16:08:36;0.60;99.90
39847;DHT22;25517;52.422;10.782;2023-01-28T16:11:04;0.50;99.90
39847;DHT22;25517;52.422;10.782;2023-01-28T16:13:33;0.50;99.90
39847;DHT22;25517;52.422;10.782;2023-01-28T16:16:02;0.50;99.90
39847;DHT22;25517;52.422;10.782;2023-01-28T16:18:41;0.40;99.90
39847;DHT22;25517;52.422;10.782;2023-01-28T16:21:20;0.40;99.90
39847;DHT22;25517;52.422;10.782;2023-01-28T16:24:03;0.40;99.90
39847;DHT22;25517;52.422;10.782;2023-01-28T16:26:31;0.40;99.90
39847;DHT22;25517;52.422;10.782;2023-01-28T16:29:10;0.40;99.90
39847;DHT22;25517;52.422;10.782;2023-01-28T16:31:37;0.40;99.90
39847;DHT22;25517;52.422;10.782;2023-01-28T16:34:02;0.30;99.90
39847;DHT22;25517;52.422;10.782;2023-01-28T16:36:28;0.40;99.90
39847;DHT22;25517;52.422;10.782;2023-01-28T16:38:54;0.30;99.90
39847;DHT22;25517;52.422;10.782;2023-01-28T16:41:26;0.30;99.90
39847;DHT22;25517;52.422;10.782;2023-01-28T16:43:53;0.20;99.90
39847;DHT22;25517;52.422;10.782;2023-01-28T16:46:18;0.30;99.90
39847;DHT22;25517;52.422;10.782;2023-01-28T16:48:44;0.20;99.90
39847;DHT22;25517;52.422;10.782;2023-01-28T16:51:17;0.20;99.90
39847;DHT22;25517;52.422;10.782;2023-01-28T16:53:45;0.20;99.90
39847;DHT22;25517;52.422;10.782;2023-01-28T16:56:14;0.20;99.90
39847;DHT22;25517;52.422;10.782;2023-01-28T16:58:40;0.20;99.90
39847;DHT22;25517;52.422;10.782;2023-01-28T17:01:06;0.10;99.90
39847;DHT22;25517;52.422;10.782;2023-01-28T17:03:31;0.10;99.90
39847;DHT22;25517;52.422;10.782;2023-01-28T17:05:57;0.10;99.90
39847;DHT22;25517;52.422;10.782;2023-01-28T17:08:23;0.00;99.90
39847;DHT22;25517;52.422;10.782;2023-01-28T17:10:53;0.10;99.90
39847;DHT22;25517;52.422;10.782;2023-01-28T17:13:19;0.00;99.90
39847;DHT22;25517;52.422;10.782;2023-01-28T17:15:44;0.00;99.90
39847;DHT22;25517;52.422;10.782;2023-01-28T17:18:10;0.00;99.90
39847;DHT22;25517;52.422;10.782;2023-01-28T17:20:37;0.00;99.90
39847;DHT22;25517;52.422;10.782;2023-01-28T17:23:08;0.10;99.90
39847;DHT22;25517;52.422;10.782;2023-01-28T17:25:40;0.10;99.90
39847;DHT22;25517;52.422;10.782;2023-01-28T17:28:06;0.00;99.90
39847;DHT22;25517;52.422;10.782;2023-01-28T17:30:33;0.00;99.90
39847;DHT22;25517;52.422;10.782;2023-01-28T17:32:59;0.00;99.90
39847;DHT22;25517;52.422;10.782;2023-01-28T17:35:24;0.00;99.90
39847;DHT22;25517;52.422;10.782;2023-01-28T17:37:53;-0.10;99.90
39847;DHT22;25517;52.422;10.782;2023-01-28T17:40:20;-0.10;99.90
39847;DHT22;25517;52.422;10.782;2023-01-28T17:42:46;-0.10;99.90
39847;DHT22;25517;52.422;10.782;2023-01-28T17:45:11;-0.10;99.90
39847;DHT22;25517;52.422;10.782;2023-01-28T17:47:37;0.00;99.90
39847;DHT22;25517;52.422;10.782;2023-01-28T17:50:03;0.00;99.90